sensor_id;sensor_type;location;lat;lon;timestamp;P1;durP1;ratioP1;P2;durP2;ratioP2
20456;SDS011;10387;51.102;6.848;2022-08-21T00:01:13;13.10;;;11.83;;
20456;SDS011;10387;51.102;6.848;2022-08-21T00:03:40;12.17;;;11.07;;
20456;SDS011;10387;51.102;6.848;2022-08-21T00:06:06;11.77;;;10.57;;
20456;SDS011;10387;51.102;6.848;2022-08-21T00:08:32;12.00;;;10.80;;
20456;SDS011;10387;51.102;6.848;2022-08-21T00:10:58;12.87;;;10.07;;
20456;SDS011;10387;51.102;6.848;2022-08-21T00:13:25;12.30;;;10.27;;
20456;SDS011;10387;51.102;6.848;2022-08-21T00:15:51;11.33;;;10.17;;
20456;SDS011;10387;51.102;6.848;2022-08-21T00:18:17;12.53;;;11.17;;
20456;SDS011;10387;51.102;6.848;2022-08-21T00:20:45;13.03;;;11.63;;
20456;SDS011;10387;51.102;6.848;2022-08-21T00:23:12;13.57;;;11.33;;
20456;SDS011;10387;51.102;6.848;2022-08-21T00:25:38;12.97;;;11.67;;
20456;SDS011;10387;51.102;6.848;2022-08-21T00:28:04;13.57;;;12.07;;
20456;SDS011;10387;51.102;6.848;2022-08-21T00:30:32;13.10;;;11.80;;
20456;SDS011;10387;51.102;6.848;2022-08-21T00:32:59;13.27;;;11.87;;
20456;SDS011;10387;51.102;6.848;2022-08-21T00:35:27;13.57;;;12.20;;
20456;SDS011;10387;51.102;6.848;2022-08-21T00:37:53;14.40;;;11.43;;
20456;SDS011;10387;51.102;6.848;2022-08-21T00:40:21;13.30;;;12.00;;
20456;SDS011;10387;51.102;6.848;2022-08-21T00:42:48;13.77;;;12.37;;
20456;SDS011;10387;51.102;6.848;2022-08-21T00:45:15;13.37;;;11.93;;
20456;SDS011;10387;51.102;6.848;2022-08-21T00:47:41;13.53;;;12.20;;
20456;SDS011;10387;51.102;6.848;2022-08-21T00:50:08;14.70;;;12.03;;
20456;SDS011;10387;51.102;6.848;2022-08-21T00:52:35;15.53;;;13.87;;
20456;SDS011;10387;51.102;6.848;2022-08-21T00:55:03;16.07;;;13.47;;
20456;SDS011;10387;51.102;6.848;2022-08-21T00:57:30;14.97;;;13.50;;
20456;SDS011;10387;51.102;6.848;2022-08-21T00:59:58;15.13;;;13.53;;
20456;SDS011;10387;51.102;6.848;2022-08-21T01:02:25;14.73;;;13.43;;
20456;SDS011;10387;51.102;6.848;2022-08-21T01:04:52;15.10;;;13.33;;
20456;SDS011;10387;51.102;6.848;2022-08-21T01:07:18;15.67;;;14.07;;
20456;SDS011;10387;51.102;6.848;2022-08-21T01:09:47;15.33;;;13.73;;
20456;SDS011;10387;51.102;6.848;2022-08-21T01:12:14;15.07;;;13.50;;
20456;SDS011;10387;51.102;6.848;2022-08-21T01:14:40;16.43;;;14.80;;
20456;SDS011;10387;51.102;6.848;2022-08-21T01:17:11;17.10;;;15.37;;
20456;SDS011;10387;51.102;6.848;2022-08-21T01:19:38;17.90;;;16.00;;
20456;SDS011;10387;51.102;6.848;2022-08-21T01:22:05;16.43;;;14.57;;
20456;SDS011;10387;51.102;6.848;2022-08-21T01:24:31;16.57;;;14.80;;
20456;SDS011;10387;51.102;6.848;2022-08-21T01:26:59;19.47;;;17.07;;
20456;SDS011;10387;51.102;6.848;2022-08-21T01:29:30;19.37;;;17.43;;
20456;SDS011;10387;51.102;6.848;2022-08-21T01:31:59;19.40;;;17.50;;
20456;SDS011;10387;51.102;6.848;2022-08-21T01:34:25;20.07;;;16.73;;
20456;SDS011;10387;51.102;6.848;2022-08-21T01:36:51;23.13;;;20.63;;
20456;SDS011;10387;51.102;6.848;2022-08-21T01:39:17;22.70;;;20.27;;
20456;SDS011;10387;51.102;6.848;2022-08-21T01:41:44;26.10;;;23.27;;
20456;SDS011;10387;51.102;6.848;2022-08-21T01:44:10;23.70;;;20.30;;
20456;SDS011;10387;51.102;6.848;2022-08-21T01:46:37;21.17;;;19.00;;
20456;SDS011;10387;51.102;6.848;2022-08-21T01:49:03;21.23;;;19.00;;
20456;SDS011;10387;51.102;6.848;2022-08-21T01:51:29;21.20;;;17.50;;
20456;SDS011;10387;51.102;6.848;2022-08-21T01:53:55;22.50;;;19.27;;
20456;SDS011;10387;51.102;6.848;2022-08-21T01:56:22;22.07;;;19.97;;
20456;SDS011;10387;51.102;6.848;2022-08-21T01:58:51;21.87;;;19.57;;
20456;SDS011;10387;51.102;6.848;2022-08-21T02:01:17;21.13;;;18.93;;
20456;SDS011;10387;51.102;6.848;2022-08-21T02:03:43;21.80;;;19.60;;
20456;SDS011;10387;51.102;6.848;2022-08-21T02:06:12;21.30;;;19.17;;
20456;SDS011;10387;51.102;6.848;2022-08-21T02:08:39;20.60;;;18.40;;
20456;SDS011;10387;51.102;6.848;2022-08-21T02:11:06;21.13;;;17.80;;
20456;SDS011;10387;51.102;6.848;2022-08-21T02:13:32;20.63;;;18.47;;
20456;SDS011;10387;51.102;6.848;2022-08-21T02:15:58;20.80;;;18.60;;
20456;SDS011;10387;51.102;6.848;2022-08-21T02:18:24;21.03;;;18.77;;
20456;SDS011;10387;51.102;6.848;2022-08-21T02:20:50;20.27;;;18.27;;
20456;SDS011;10387;51.102;6.848;2022-08-21T02:23:16;20.13;;;17.97;;
20456;SDS011;10387;51.102;6.848;2022-08-21T02:25:43;19.60;;;17.30;;
20456;SDS011;10387;51.102;6.848;2022-08-21T02:28:11;18.37;;;16.33;;
20456;SDS011;10387;51.102;6.848;2022-08-21T02:30:40;18.83;;;16.83;;
20456;SDS011;10387;51.102;6.848;2022-08-21T02:33:06;20.00;;;16.73;;
20456;SDS011;10387;51.102;6.848;2022-08-21T02:35:33;18.90;;;17.00;;
20456;SDS011;10387;51.102;6.848;2022-08-21T02:38:00;19.43;;;17.47;;
20456;SDS011;10387;51.102;6.848;2022-08-21T02:40:28;19.90;;;18.03;;
20456;SDS011;10387;51.102;6.848;2022-08-21T02:42:56;22.90;;;19.17;;
20456;SDS011;10387;51.102;6.848;2022-08-21T02:45:22;21.33;;;19.23;;
20456;SDS011;10387;51.102;6.848;2022-08-21T02:47:49;21.63;;;19.53;;
20456;SDS011;10387;51.102;6.848;2022-08-21T02:50:17;19.83;;;17.93;;
20456;SDS011;10387;51.102;6.848;2022-08-21T02:52:44;19.20;;;17.40;;
20456;SDS011;10387;51.102;6.848;2022-08-21T02:55:10;20.17;;;17.97;;
20456;SDS011;10387;51.102;6.848;2022-08-21T02:57:37;19.17;;;17.47;;
20456;SDS011;10387;51.102;6.848;2022-08-21T03:00:04;20.23;;;18.07;;
20456;SDS011;10387;51.102;6.848;2022-08-21T03:02:31;19.63;;;17.73;;
20456;SDS011;10387;51.102;6.848;2022-08-21T03:04:57;19.23;;;17.50;;
20456;SDS011;10387;51.102;6.848;2022-08-21T03:07:23;19.17;;;17.33;;
20456;SDS011;10387;51.102;6.848;2022-08-21T03:09:49;20.33;;;17.07;;
20456;SDS011;10387;51.102;6.848;2022-08-21T03:12:15;20.97;;;18.70;;
20456;SDS011;10387;51.102;6.848;2022-08-21T03:14:41;22.63;;;18.70;;
20456;SDS011;10387;51.102;6.848;2022-08-21T03:17:08;19.60;;;17.70;;
20456;SDS011;10387;51.102;6.848;2022-08-21T03:19:34;19.60;;;17.70;;
20456;SDS011;10387;51.102;6.848;2022-08-21T03:22:00;20.23;;;18.17;;
20456;SDS011;10387;51.102;6.848;2022-08-21T03:24:26;19.63;;;17.83;;
20456;SDS011;10387;51.102;6.848;2022-08-21T03:26:52;20.87;;;18.87;;
20456;SDS011;10387;51.102;6.848;2022-08-21T03:29:18;19.57;;;17.63;;
20456;SDS011;10387;51.102;6.848;2022-08-21T03:31:44;18.53;;;16.80;;
20456;SDS011;10387;51.102;6.848;2022-08-21T03:34:10;18.63;;;16.73;;
20456;SDS011;10387;51.102;6.848;2022-08-21T03:36:36;19.73;;;17.80;;
20456;SDS011;10387;51.102;6.848;2022-08-21T03:39:03;20.00;;;17.67;;
20456;SDS011;10387;51.102;6.848;2022-08-21T03:41:29;20.13;;;18.20;;
20456;SDS011;10387;51.102;6.848;2022-08-21T03:43:55;18.60;;;16.80;;
20456;SDS011;10387;51.102;6.848;2022-08-21T03:46:21;18.87;;;17.07;;
20456;SDS011;10387;51.102;6.848;2022-08-21T03:48:47;19.13;;;16.87;;
20456;SDS011;10387;51.102;6.848;2022-08-21T03:51:13;19.37;;;17.33;;
20456;SDS011;10387;51.102;6.848;2022-08-21T03:53:40;22.87;;;18.43;;
20456;SDS011;10387;51.102;6.848;2022-08-21T03:56:06;18.90;;;17.00;;
20456;SDS011;10387;51.102;6.848;2022-08-21T03:58:33;20.80;;;17.47;;
20456;SDS011;10387;51.102;6.848;2022-08-21T04:01:00;23.43;;;19.33;;
20456;SDS011;10387;51.102;6.848;2022-08-21T04:03:26;21.23;;;18.70;;
20456;SDS011;10387;51.102;6.848;2022-08-21T04:05:52;20.67;;;18.57;;
20456;SDS011;10387;51.102;6.848;2022-08-21T04:08:19;22.00;;;18.80;;
20456;SDS011;10387;51.102;6.848;2022-08-21T04:10:46;24.40;;;19.13;;
20456;SDS011;10387;51.102;6.848;2022-08-21T04:13:13;25.17;;;19.00;;
20456;SDS011;10387;51.102;6.848;2022-08-21T04:15:39;21.90;;;18.93;;
20456;SDS011;10387;51.102;6.848;2022-08-21T04:18:06;21.20;;;19.10;;
20456;SDS011;10387;51.102;6.848;2022-08-21T04:20:33;21.97;;;18.93;;
20456;SDS011;10387;51.102;6.848;2022-08-21T04:23:00;18.77;;;16.67;;
20456;SDS011;10387;51.102;6.848;2022-08-21T04:25:27;22.10;;;18.20;;
20456;SDS011;10387;51.102;6.848;2022-08-21T04:27:53;19.67;;;17.50;;
20456;SDS011;10387;51.102;6.848;2022-08-21T04:30:20;18.07;;;15.90;;
20456;SDS011;10387;51.102;6.848;2022-08-21T04:32:47;17.43;;;15.57;;
20456;SDS011;10387;51.102;6.848;2022-08-21T04:35:14;18.97;;;16.97;;
20456;SDS011;10387;51.102;6.848;2022-08-21T04:37:41;18.60;;;16.70;;
20456;SDS011;10387;51.102;6.848;2022-08-21T04:40:08;21.07;;;17.70;;
20456;SDS011;10387;51.102;6.848;2022-08-21T04:42:40;18.37;;;16.57;;
20456;SDS011;10387;51.102;6.848;2022-08-21T04:45:07;19.97;;;16.97;;
20456;SDS011;10387;51.102;6.848;2022-08-21T04:47:33;19.53;;;17.47;;
20456;SDS011;10387;51.102;6.848;2022-08-21T04:50:00;21.70;;;17.57;;
20456;SDS011;10387;51.102;6.848;2022-08-21T04:52:26;23.23;;;18.17;;
20456;SDS011;10387;51.102;6.848;2022-08-21T04:54:52;19.77;;;17.30;;
20456;SDS011;10387;51.102;6.848;2022-08-21T04:57:18;19.03;;;16.90;;
20456;SDS011;10387;51.102;6.848;2022-08-21T04:59:46;19.90;;;17.90;;
20456;SDS011;10387;51.102;6.848;2022-08-21T05:02:13;18.77;;;16.87;;
20456;SDS011;10387;51.102;6.848;2022-08-21T05:04:42;19.07;;;17.07;;
20456;SDS011;10387;51.102;6.848;2022-08-21T05:07:12;20.93;;;18.03;;
20456;SDS011;10387;51.102;6.848;2022-08-21T05:09:41;18.97;;;17.03;;
20456;SDS011;10387;51.102;6.848;2022-08-21T05:12:07;19.33;;;17.37;;
20456;SDS011;10387;51.102;6.848;2022-08-21T05:14:33;20.23;;;18.03;;
20456;SDS011;10387;51.102;6.848;2022-08-21T05:17:00;19.20;;;16.90;;
20456;SDS011;10387;51.102;6.848;2022-08-21T05:19:26;21.13;;;17.90;;
20456;SDS011;10387;51.102;6.848;2022-08-21T05:21:52;22.43;;;16.90;;
20456;SDS011;10387;51.102;6.848;2022-08-21T05:24:19;17.97;;;15.97;;
20456;SDS011;10387;51.102;6.848;2022-08-21T05:26:45;18.73;;;15.47;;
20456;SDS011;10387;51.102;6.848;2022-08-21T05:29:11;17.03;;;14.70;;
20456;SDS011;10387;51.102;6.848;2022-08-21T05:31:38;16.13;;;14.53;;
20456;SDS011;10387;51.102;6.848;2022-08-21T05:34:05;17.23;;;15.43;;
20456;SDS011;10387;51.102;6.848;2022-08-21T05:36:31;16.27;;;14.57;;
20456;SDS011;10387;51.102;6.848;2022-08-21T05:38:57;18.00;;;14.47;;
20456;SDS011;10387;51.102;6.848;2022-08-21T05:41:23;18.60;;;13.80;;
20456;SDS011;10387;51.102;6.848;2022-08-21T05:43:50;15.87;;;13.77;;
20456;SDS011;10387;51.102;6.848;2022-08-21T05:46:16;16.37;;;14.17;;
20456;SDS011;10387;51.102;6.848;2022-08-21T05:48:42;18.27;;;13.33;;
20456;SDS011;10387;51.102;6.848;2022-08-21T05:51:09;15.20;;;13.60;;
20456;SDS011;10387;51.102;6.848;2022-08-21T05:53:36;16.10;;;14.60;;
20456;SDS011;10387;51.102;6.848;2022-08-21T05:56:03;15.93;;;14.33;;
20456;SDS011;10387;51.102;6.848;2022-08-21T05:58:30;15.20;;;13.63;;
20456;SDS011;10387;51.102;6.848;2022-08-21T06:00:57;16.10;;;13.90;;
20456;SDS011;10387;51.102;6.848;2022-08-21T06:03:24;15.27;;;13.67;;
20456;SDS011;10387;51.102;6.848;2022-08-21T06:05:51;16.00;;;13.67;;
20456;SDS011;10387;51.102;6.848;2022-08-21T06:08:18;14.63;;;12.93;;
20456;SDS011;10387;51.102;6.848;2022-08-21T06:10:45;17.50;;;14.33;;
20456;SDS011;10387;51.102;6.848;2022-08-21T06:13:13;16.63;;;13.90;;
20456;SDS011;10387;51.102;6.848;2022-08-21T06:15:39;16.93;;;15.13;;
20456;SDS011;10387;51.102;6.848;2022-08-21T06:18:06;18.33;;;15.37;;
20456;SDS011;10387;51.102;6.848;2022-08-21T06:20:32;16.53;;;14.83;;
20456;SDS011;10387;51.102;6.848;2022-08-21T06:22:58;20.17;;;15.87;;
20456;SDS011;10387;51.102;6.848;2022-08-21T06:25:25;18.00;;;14.97;;
20456;SDS011;10387;51.102;6.848;2022-08-21T06:27:51;16.40;;;14.73;;
20456;SDS011;10387;51.102;6.848;2022-08-21T06:30:17;17.63;;;14.57;;
20456;SDS011;10387;51.102;6.848;2022-08-21T06:32:44;15.93;;;14.33;;
20456;SDS011;10387;51.102;6.848;2022-08-21T06:35:10;18.93;;;15.23;;
20456;SDS011;10387;51.102;6.848;2022-08-21T06:37:36;17.60;;;15.73;;
20456;SDS011;10387;51.102;6.848;2022-08-21T06:40:03;17.20;;;15.27;;
20456;SDS011;10387;51.102;6.848;2022-08-21T06:42:29;16.87;;;14.90;;
20456;SDS011;10387;51.102;6.848;2022-08-21T06:44:56;18.90;;;14.53;;
20456;SDS011;10387;51.102;6.848;2022-08-21T06:47:23;13.90;;;12.50;;
20456;SDS011;10387;51.102;6.848;2022-08-21T06:49:49;12.93;;;9.27;;
20456;SDS011;10387;51.102;6.848;2022-08-21T06:52:15;8.57;;;7.17;;
20456;SDS011;10387;51.102;6.848;2022-08-21T06:54:41;10.03;;;7.07;;
20456;SDS011;10387;51.102;6.848;2022-08-21T06:57:07;9.60;;;6.80;;
20456;SDS011;10387;51.102;6.848;2022-08-21T06:59:33;10.47;;;7.63;;
20456;SDS011;10387;51.102;6.848;2022-08-21T07:02:00;9.03;;;6.77;;
20456;SDS011;10387;51.102;6.848;2022-08-21T07:04:27;10.97;;;7.33;;
20456;SDS011;10387;51.102;6.848;2022-08-21T07:06:53;9.40;;;6.63;;
20456;SDS011;10387;51.102;6.848;2022-08-21T07:09:20;9.80;;;7.27;;
20456;SDS011;10387;51.102;6.848;2022-08-21T07:11:46;10.27;;;6.67;;
20456;SDS011;10387;51.102;6.848;2022-08-21T07:14:15;10.93;;;6.83;;
20456;SDS011;10387;51.102;6.848;2022-08-21T07:16:41;9.47;;;6.27;;
20456;SDS011;10387;51.102;6.848;2022-08-21T07:19:07;7.97;;;5.80;;
20456;SDS011;10387;51.102;6.848;2022-08-21T07:21:33;9.03;;;5.47;;
20456;SDS011;10387;51.102;6.848;2022-08-21T07:23:59;8.80;;;5.33;;
20456;SDS011;10387;51.102;6.848;2022-08-21T07:26:25;8.43;;;5.37;;
20456;SDS011;10387;51.102;6.848;2022-08-21T07:28:52;9.13;;;5.37;;
20456;SDS011;10387;51.102;6.848;2022-08-21T07:31:19;7.93;;;5.03;;
20456;SDS011;10387;51.102;6.848;2022-08-21T07:33:46;7.60;;;5.13;;
20456;SDS011;10387;51.102;6.848;2022-08-21T07:36:12;8.43;;;5.30;;
20456;SDS011;10387;51.102;6.848;2022-08-21T07:38:39;9.03;;;5.00;;
20456;SDS011;10387;51.102;6.848;2022-08-21T07:41:24;9.60;;;4.97;;
20456;SDS011;10387;51.102;6.848;2022-08-21T07:43:50;7.70;;;5.00;;
20456;SDS011;10387;51.102;6.848;2022-08-21T07:46:17;6.97;;;4.90;;
20456;SDS011;10387;51.102;6.848;2022-08-21T07:48:43;9.27;;;5.10;;
20456;SDS011;10387;51.102;6.848;2022-08-21T07:51:11;7.03;;;4.93;;
20456;SDS011;10387;51.102;6.848;2022-08-21T07:53:37;7.37;;;5.43;;
20456;SDS011;10387;51.102;6.848;2022-08-21T07:56:04;9.40;;;5.50;;
20456;SDS011;10387;51.102;6.848;2022-08-21T07:58:31;10.50;;;5.57;;
20456;SDS011;10387;51.102;6.848;2022-08-21T08:00:57;7.77;;;4.67;;
20456;SDS011;10387;51.102;6.848;2022-08-21T08:03:24;5.43;;;4.67;;
20456;SDS011;10387;51.102;6.848;2022-08-21T08:05:50;7.23;;;3.17;;
20456;SDS011;10387;51.102;6.848;2022-08-21T08:08:16;5.47;;;3.10;;
20456;SDS011;10387;51.102;6.848;2022-08-21T08:10:43;4.97;;;2.63;;
20456;SDS011;10387;51.102;6.848;2022-08-21T08:13:10;7.40;;;3.20;;
20456;SDS011;10387;51.102;6.848;2022-08-21T08:15:36;5.53;;;2.90;;
20456;SDS011;10387;51.102;6.848;2022-08-21T08:18:02;5.70;;;2.83;;
20456;SDS011;10387;51.102;6.848;2022-08-21T08:20:29;6.53;;;3.10;;
20456;SDS011;10387;51.102;6.848;2022-08-21T08:22:55;5.93;;;2.80;;
20456;SDS011;10387;51.102;6.848;2022-08-21T08:25:22;4.63;;;2.40;;
20456;SDS011;10387;51.102;6.848;2022-08-21T08:27:49;5.17;;;2.60;;
20456;SDS011;10387;51.102;6.848;2022-08-21T08:30:16;5.40;;;2.50;;
20456;SDS011;10387;51.102;6.848;2022-08-21T08:32:43;4.90;;;2.30;;
20456;SDS011;10387;51.102;6.848;2022-08-21T08:35:09;5.17;;;2.37;;
20456;SDS011;10387;51.102;6.848;2022-08-21T08:37:36;6.30;;;2.83;;
20456;SDS011;10387;51.102;6.848;2022-08-21T08:40:05;5.30;;;2.40;;
20456;SDS011;10387;51.102;6.848;2022-08-21T08:42:33;6.40;;;2.37;;
20456;SDS011;10387;51.102;6.848;2022-08-21T08:45:02;5.27;;;2.57;;
20456;SDS011;10387;51.102;6.848;2022-08-21T08:47:30;6.03;;;2.57;;
20456;SDS011;10387;51.102;6.848;2022-08-21T08:50:05;6.30;;;2.97;;
20456;SDS011;10387;51.102;6.848;2022-08-21T08:52:36;6.40;;;2.97;;
20456;SDS011;10387;51.102;6.848;2022-08-21T08:55:13;6.27;;;2.53;;
20456;SDS011;10387;51.102;6.848;2022-08-21T08:57:42;6.27;;;3.07;;
20456;SDS011;10387;51.102;6.848;2022-08-21T09:00:10;6.17;;;2.80;;
20456;SDS011;10387;51.102;6.848;2022-08-21T09:02:41;9.33;;;3.00;;
20456;SDS011;10387;51.102;6.848;2022-08-21T09:05:08;7.93;;;2.73;;
20456;SDS011;10387;51.102;6.848;2022-08-21T09:10:21;4.97;;;2.60;;
20456;SDS011;10387;51.102;6.848;2022-08-21T09:12:51;5.97;;;2.20;;
20456;SDS011;10387;51.102;6.848;2022-08-21T09:15:42;3.20;;;1.90;;
20456;SDS011;10387;51.102;6.848;2022-08-21T09:21:18;4.63;;;2.00;;
20456;SDS011;10387;51.102;6.848;2022-08-21T09:23:49;6.10;;;2.27;;
20456;SDS011;10387;51.102;6.848;2022-08-21T09:26:25;5.63;;;2.40;;
20456;SDS011;10387;51.102;6.848;2022-08-21T09:28:53;6.47;;;2.20;;
20456;SDS011;10387;51.102;6.848;2022-08-21T09:31:21;3.53;;;2.33;;
20456;SDS011;10387;51.102;6.848;2022-08-21T09:33:48;3.23;;;2.10;;
20456;SDS011;10387;51.102;6.848;2022-08-21T09:36:25;4.83;;;2.50;;
20456;SDS011;10387;51.102;6.848;2022-08-21T09:38:58;5.63;;;2.50;;
20456;SDS011;10387;51.102;6.848;2022-08-21T09:41:29;5.83;;;2.70;;
20456;SDS011;10387;51.102;6.848;2022-08-21T09:43:56;5.57;;;2.50;;
20456;SDS011;10387;51.102;6.848;2022-08-21T09:46:26;4.30;;;2.10;;
20456;SDS011;10387;51.102;6.848;2022-08-21T09:49:04;4.93;;;2.37;;
20456;SDS011;10387;51.102;6.848;2022-08-21T09:51:35;3.97;;;2.23;;
20456;SDS011;10387;51.102;6.848;2022-08-21T09:59:36;2.70;;;1.90;;
20456;SDS011;10387;51.102;6.848;2022-08-21T10:02:18;4.33;;;2.03;;
20456;SDS011;10387;51.102;6.848;2022-08-21T10:04:49;5.27;;;1.93;;
20456;SDS011;10387;51.102;6.848;2022-08-21T10:07:20;4.67;;;2.00;;
20456;SDS011;10387;51.102;6.848;2022-08-21T10:16:00;4.43;;;2.50;;
20456;SDS011;10387;51.102;6.848;2022-08-21T10:20:45;4.70;;;2.40;;
20456;SDS011;10387;51.102;6.848;2022-08-21T10:28:17;4.80;;;2.37;;
20456;SDS011;10387;51.102;6.848;2022-08-21T10:31:00;4.43;;;2.20;;
20456;SDS011;10387;51.102;6.848;2022-08-21T10:36:14;5.13;;;2.47;;
20456;SDS011;10387;51.102;6.848;2022-08-21T10:57:19;3.57;;;2.60;;
20456;SDS011;10387;51.102;6.848;2022-08-21T10:59:54;3.53;;;2.50;;
20456;SDS011;10387;51.102;6.848;2022-08-21T11:02:32;6.20;;;2.40;;
20456;SDS011;10387;51.102;6.848;2022-08-21T11:07:35;4.63;;;2.20;;
20456;SDS011;10387;51.102;6.848;2022-08-21T11:10:25;4.40;;;2.03;;
20456;SDS011;10387;51.102;6.848;2022-08-21T11:13:00;5.17;;;2.30;;
20456;SDS011;10387;51.102;6.848;2022-08-21T11:18:19;3.97;;;2.27;;
20456;SDS011;10387;51.102;6.848;2022-08-21T11:23:36;2.95;;;1.83;;
20456;SDS011;10387;51.102;6.848;2022-08-21T11:26:11;4.70;;;2.27;;
20456;SDS011;10387;51.102;6.848;2022-08-21T11:28:46;5.37;;;1.70;;
20456;SDS011;10387;51.102;6.848;2022-08-21T11:41:31;4.30;;;2.00;;
20456;SDS011;10387;51.102;6.848;2022-08-21T11:51:47;4.87;;;2.40;;
20456;SDS011;10387;51.102;6.848;2022-08-21T11:57:19;7.05;;;2.22;;
20456;SDS011;10387;51.102;6.848;2022-08-21T11:59:58;3.80;;;1.93;;
20456;SDS011;10387;51.102;6.848;2022-08-21T12:02:28;4.40;;;2.07;;
20456;SDS011;10387;51.102;6.848;2022-08-21T12:04:56;6.82;;;2.60;;
20456;SDS011;10387;51.102;6.848;2022-08-21T12:07:33;3.77;;;2.30;;
20456;SDS011;10387;51.102;6.848;2022-08-21T12:10:00;3.10;;;1.80;;
20456;SDS011;10387;51.102;6.848;2022-08-21T12:15:05;4.78;;;1.90;;
20456;SDS011;10387;51.102;6.848;2022-08-21T12:17:37;5.32;;;2.30;;
20456;SDS011;10387;51.102;6.848;2022-08-21T12:20:18;4.80;;;1.90;;
20456;SDS011;10387;51.102;6.848;2022-08-21T12:23:24;4.70;;;2.37;;
20456;SDS011;10387;51.102;6.848;2022-08-21T12:28:28;4.90;;;2.10;;
20456;SDS011;10387;51.102;6.848;2022-08-21T12:30:55;3.60;;;1.98;;
20456;SDS011;10387;51.102;6.848;2022-08-21T12:33:27;5.05;;;2.10;;
20456;SDS011;10387;51.102;6.848;2022-08-21T12:36:03;5.53;;;1.90;;
20456;SDS011;10387;51.102;6.848;2022-08-21T12:38:39;4.67;;;1.90;;
20456;SDS011;10387;51.102;6.848;2022-08-21T12:41:11;4.07;;;2.00;;
20456;SDS011;10387;51.102;6.848;2022-08-21T12:43:42;3.93;;;1.97;;
20456;SDS011;10387;51.102;6.848;2022-08-21T12:46:17;4.10;;;2.20;;
20456;SDS011;10387;51.102;6.848;2022-08-21T12:48:52;3.87;;;1.90;;
20456;SDS011;10387;51.102;6.848;2022-08-21T12:54:09;4.30;;;1.88;;
20456;SDS011;10387;51.102;6.848;2022-08-21T12:56:35;4.45;;;2.03;;
20456;SDS011;10387;51.102;6.848;2022-08-21T12:59:05;2.40;;;1.90;;
20456;SDS011;10387;51.102;6.848;2022-08-21T13:01:36;3.20;;;2.08;;
20456;SDS011;10387;51.102;6.848;2022-08-21T13:04:07;4.13;;;1.95;;
20456;SDS011;10387;51.102;6.848;2022-08-21T13:06:38;3.58;;;1.95;;
20456;SDS011;10387;51.102;6.848;2022-08-21T13:09:10;3.70;;;2.00;;
20456;SDS011;10387;51.102;6.848;2022-08-21T13:11:37;3.47;;;2.00;;
20456;SDS011;10387;51.102;6.848;2022-08-21T13:14:05;3.47;;;1.90;;
20456;SDS011;10387;51.102;6.848;2022-08-21T13:16:32;4.35;;;1.58;;
20456;SDS011;10387;51.102;6.848;2022-08-21T13:19:05;3.53;;;1.95;;
20456;SDS011;10387;51.102;6.848;2022-08-21T13:21:33;5.00;;;2.05;;
20456;SDS011;10387;51.102;6.848;2022-08-21T13:24:34;2.85;;;1.75;;
20456;SDS011;10387;51.102;6.848;2022-08-21T13:26:52;1.98;;;1.70;;
20456;SDS011;10387;51.102;6.848;2022-08-21T13:29:20;1.67;;;1.20;;
20456;SDS011;10387;51.102;6.848;2022-08-21T13:31:49;4.28;;;1.48;;
20456;SDS011;10387;51.102;6.848;2022-08-21T13:34:24;2.35;;;1.30;;
20456;SDS011;10387;51.102;6.848;2022-08-21T13:36:52;2.97;;;1.50;;
20456;SDS011;10387;51.102;6.848;2022-08-21T13:39:20;3.05;;;1.20;;
20456;SDS011;10387;51.102;6.848;2022-08-21T13:41:48;2.22;;;1.50;;
20456;SDS011;10387;51.102;6.848;2022-08-21T13:44:19;3.45;;;1.60;;
20456;SDS011;10387;51.102;6.848;2022-08-21T13:46:48;3.80;;;1.55;;
20456;SDS011;10387;51.102;6.848;2022-08-21T13:49:15;2.53;;;1.42;;
20456;SDS011;10387;51.102;6.848;2022-08-21T13:51:42;2.60;;;1.45;;
20456;SDS011;10387;51.102;6.848;2022-08-21T13:54:16;2.90;;;1.58;;
20456;SDS011;10387;51.102;6.848;2022-08-21T13:56:47;3.25;;;1.60;;
20456;SDS011;10387;51.102;6.848;2022-08-21T13:59:23;2.13;;;1.40;;
20456;SDS011;10387;51.102;6.848;2022-08-21T14:02:13;2.05;;;1.42;;
20456;SDS011;10387;51.102;6.848;2022-08-21T14:04:38;2.67;;;1.23;;
20456;SDS011;10387;51.102;6.848;2022-08-21T14:07:16;2.45;;;1.20;;
20456;SDS011;10387;51.102;6.848;2022-08-21T14:09:43;2.17;;;1.40;;
20456;SDS011;10387;51.102;6.848;2022-08-21T14:12:14;2.22;;;1.30;;
20456;SDS011;10387;51.102;6.848;2022-08-21T14:14:41;3.08;;;1.73;;
20456;SDS011;10387;51.102;6.848;2022-08-21T14:17:11;2.80;;;1.48;;
20456;SDS011;10387;51.102;6.848;2022-08-21T14:19:42;3.38;;;1.20;;
20456;SDS011;10387;51.102;6.848;2022-08-21T14:25:06;4.35;;;1.10;;
20456;SDS011;10387;51.102;6.848;2022-08-21T14:27:36;1.80;;;1.10;;
20456;SDS011;10387;51.102;6.848;2022-08-21T14:30:21;1.98;;;1.45;;
20456;SDS011;10387;51.102;6.848;2022-08-21T14:32:48;2.35;;;1.33;;
20456;SDS011;10387;51.102;6.848;2022-08-21T14:35:15;3.58;;;1.27;;
20456;SDS011;10387;51.102;6.848;2022-08-21T14:37:43;3.55;;;1.55;;
20456;SDS011;10387;51.102;6.848;2022-08-21T14:40:10;3.28;;;1.40;;
20456;SDS011;10387;51.102;6.848;2022-08-21T14:42:37;2.00;;;1.20;;
20456;SDS011;10387;51.102;6.848;2022-08-21T14:45:08;1.90;;;1.30;;
20456;SDS011;10387;51.102;6.848;2022-08-21T14:47:36;2.00;;;1.20;;
20456;SDS011;10387;51.102;6.848;2022-08-21T14:50:03;3.25;;;1.15;;
20456;SDS011;10387;51.102;6.848;2022-08-21T14:52:29;2.10;;;1.30;;
20456;SDS011;10387;51.102;6.848;2022-08-21T14:54:55;1.77;;;1.08;;
20456;SDS011;10387;51.102;6.848;2022-08-21T14:57:29;1.95;;;1.13;;
20456;SDS011;10387;51.102;6.848;2022-08-21T14:59:57;3.33;;;1.52;;
20456;SDS011;10387;51.102;6.848;2022-08-21T15:02:25;3.33;;;1.40;;
20456;SDS011;10387;51.102;6.848;2022-08-21T15:04:51;2.45;;;1.55;;
20456;SDS011;10387;51.102;6.848;2022-08-21T15:07:17;2.95;;;1.40;;
20456;SDS011;10387;51.102;6.848;2022-08-21T15:09:45;2.95;;;1.50;;
20456;SDS011;10387;51.102;6.848;2022-08-21T15:12:11;2.10;;;1.50;;
20456;SDS011;10387;51.102;6.848;2022-08-21T15:14:39;2.38;;;1.27;;
20456;SDS011;10387;51.102;6.848;2022-08-21T15:17:06;3.10;;;1.65;;
20456;SDS011;10387;51.102;6.848;2022-08-21T15:19:37;2.58;;;1.65;;
20456;SDS011;10387;51.102;6.848;2022-08-21T15:22:03;1.95;;;1.27;;
20456;SDS011;10387;51.102;6.848;2022-08-21T15:24:29;2.60;;;1.65;;
20456;SDS011;10387;51.102;6.848;2022-08-21T15:26:56;2.22;;;1.75;;
20456;SDS011;10387;51.102;6.848;2022-08-21T15:29:25;2.53;;;1.40;;
20456;SDS011;10387;51.102;6.848;2022-08-21T15:31:56;4.50;;;1.90;;
20456;SDS011;10387;51.102;6.848;2022-08-21T15:34:27;2.88;;;1.20;;
20456;SDS011;10387;51.102;6.848;2022-08-21T15:36:54;2.03;;;1.48;;
20456;SDS011;10387;51.102;6.848;2022-08-21T15:39:21;2.17;;;1.42;;
20456;SDS011;10387;51.102;6.848;2022-08-21T15:41:54;2.90;;;1.40;;
20456;SDS011;10387;51.102;6.848;2022-08-21T15:44:21;2.92;;;1.40;;
20456;SDS011;10387;51.102;6.848;2022-08-21T15:46:50;3.63;;;1.90;;
20456;SDS011;10387;51.102;6.848;2022-08-21T15:49:16;3.15;;;1.30;;
20456;SDS011;10387;51.102;6.848;2022-08-21T15:51:42;3.55;;;1.80;;
20456;SDS011;10387;51.102;6.848;2022-08-21T15:54:09;2.67;;;1.50;;
20456;SDS011;10387;51.102;6.848;2022-08-21T15:56:37;2.58;;;1.42;;
20456;SDS011;10387;51.102;6.848;2022-08-21T15:59:05;2.53;;;1.40;;
20456;SDS011;10387;51.102;6.848;2022-08-21T16:01:32;3.40;;;1.50;;
20456;SDS011;10387;51.102;6.848;2022-08-21T16:03:59;2.15;;;1.30;;
20456;SDS011;10387;51.102;6.848;2022-08-21T16:06:25;1.73;;;1.27;;
20456;SDS011;10387;51.102;6.848;2022-08-21T16:08:51;1.73;;;1.20;;